sensor_id;sensor_type;location;lat;lon;timestamp;temperature;humidity
74171;DHT22;62526;50.948;6.590;2022-09-24T00:00:45;13.80;86.00
74171;DHT22;62526;50.948;6.590;2022-09-24T00:03:11;13.70;85.80
74171;DHT22;62526;50.948;6.590;2022-09-24T00:05:39;13.80;86.20
74171;DHT22;62526;50.948;6.590;2022-09-24T00:08:05;13.70;86.30
74171;DHT22;62526;50.948;6.590;2022-09-24T00:10:35;13.70;86.40
74171;DHT22;62526;50.948;6.590;2022-09-24T00:13:01;13.70;86.50
74171;DHT22;62526;50.948;6.590;2022-09-24T00:15:28;13.70;86.70
74171;DHT22;62526;50.948;6.590;2022-09-24T00:17:54;13.80;86.70
74171;DHT22;62526;50.948;6.590;2022-09-24T00:20:21;13.80;86.70
74171;DHT22;62526;50.948;6.590;2022-09-24T00:22:47;13.90;86.50
74171;DHT22;62526;50.948;6.590;2022-09-24T00:25:14;13.90;86.30
74171;DHT22;62526;50.948;6.590;2022-09-24T00:27:46;14.00;86.20
74171;DHT22;62526;50.948;6.590;2022-09-24T00:30:13;14.00;86.00
74171;DHT22;62526;50.948;6.590;2022-09-24T00:32:40;14.00;85.90
74171;DHT22;62526;50.948;6.590;2022-09-24T00:35:07;14.00;86.00
74171;DHT22;62526;50.948;6.590;2022-09-24T00:37:33;14.10;86.10
74171;DHT22;62526;50.948;6.590;2022-09-24T00:40:00;14.00;86.30
74171;DHT22;62526;50.948;6.590;2022-09-24T00:42:27;14.00;86.60
74171;DHT22;62526;50.948;6.590;2022-09-24T00:44:54;14.00;86.80
74171;DHT22;62526;50.948;6.590;2022-09-24T00:47:31;13.90;86.60
74171;DHT22;62526;50.948;6.590;2022-09-24T00:50:02;13.90;86.80
74171;DHT22;62526;50.948;6.590;2022-09-24T00:52:24;13.80;87.00
74171;DHT22;62526;50.948;6.590;2022-09-24T00:54:52;13.80;87.60
74171;DHT22;62526;50.948;6.590;2022-09-24T00:57:18;13.70;87.10
74171;DHT22;62526;50.948;6.590;2022-09-24T00:59:45;13.70;87.30
74171;DHT22;62526;50.948;6.590;2022-09-24T01:02:12;13.70;87.50
74171;DHT22;62526;50.948;6.590;2022-09-24T01:04:39;13.70;87.80
74171;DHT22;62526;50.948;6.590;2022-09-24T01:07:05;13.70;87.90
74171;DHT22;62526;50.948;6.590;2022-09-24T01:09:32;13.70;88.00
74171;DHT22;62526;50.948;6.590;2022-09-24T01:12:01;13.70;88.10
74171;DHT22;62526;50.948;6.590;2022-09-24T01:14:33;13.70;87.90
74171;DHT22;62526;50.948;6.590;2022-09-24T01:17:07;13.70;87.90
74171;DHT22;62526;50.948;6.590;2022-09-24T01:20:02;13.60;87.80
74171;DHT22;62526;50.948;6.590;2022-09-24T01:22:41;13.60;88.00
74171;DHT22;62526;50.948;6.590;2022-09-24T01:25:27;13.60;88.10
74171;DHT22;62526;50.948;6.590;2022-09-24T01:28:00;13.60;88.30
74171;DHT22;62526;50.948;6.590;2022-09-24T01:30:28;13.60;88.30
74171;DHT22;62526;50.948;6.590;2022-09-24T01:32:55;13.60;88.50
74171;DHT22;62526;50.948;6.590;2022-09-24T01:35:41;13.60;88.40
74171;DHT22;62526;50.948;6.590;2022-09-24T01:38:16;13.60;88.20
74171;DHT22;62526;50.948;6.590;2022-09-24T01:40:42;13.60;88.10
74171;DHT22;62526;50.948;6.590;2022-09-24T01:43:09;13.60;88.10
74171;DHT22;62526;50.948;6.590;2022-09-24T01:45:35;13.60;88.20
74171;DHT22;62526;50.948;6.590;2022-09-24T01:48:02;13.60;88.10
74171;DHT22;62526;50.948;6.590;2022-09-24T01:50:30;13.60;88.10
74171;DHT22;62526;50.948;6.590;2022-09-24T01:53:01;13.60;88.10
74171;DHT22;62526;50.948;6.590;2022-09-24T01:55:29;13.60;87.80
74171;DHT22;62526;50.948;6.590;2022-09-24T01:58:01;13.60;87.80
74171;DHT22;62526;50.948;6.590;2022-09-24T02:00:26;13.60;88.00
74171;DHT22;62526;50.948;6.590;2022-09-24T02:02:58;13.60;88.10
74171;DHT22;62526;50.948;6.590;2022-09-24T02:05:33;13.60;88.10
74171;DHT22;62526;50.948;6.590;2022-09-24T02:08:07;13.60;88.10
74171;DHT22;62526;50.948;6.590;2022-09-24T02:10:34;13.60;87.80
74171;DHT22;62526;50.948;6.590;2022-09-24T02:13:01;13.50;88.00
74171;DHT22;62526;50.948;6.590;2022-09-24T02:15:30;13.50;88.20
74171;DHT22;62526;50.948;6.590;2022-09-24T02:17:55;13.50;88.50
74171;DHT22;62526;50.948;6.590;2022-09-24T02:20:22;13.50;88.70
74171;DHT22;62526;50.948;6.590;2022-09-24T02:22:48;13.50;88.70
74171;DHT22;62526;50.948;6.590;2022-09-24T02:25:17;13.50;88.60
74171;DHT22;62526;50.948;6.590;2022-09-24T02:27:41;13.50;88.70
74171;DHT22;62526;50.948;6.590;2022-09-24T02:30:08;13.40;88.80
74171;DHT22;62526;50.948;6.590;2022-09-24T02:32:35;13.40;88.90
74171;DHT22;62526;50.948;6.590;2022-09-24T02:35:04;13.50;89.10
74171;DHT22;62526;50.948;6.590;2022-09-24T02:37:32;13.50;89.10
74171;DHT22;62526;50.948;6.590;2022-09-24T02:40:07;13.50;89.10
74171;DHT22;62526;50.948;6.590;2022-09-24T02:42:32;13.50;89.00
74171;DHT22;62526;50.948;6.590;2022-09-24T02:44:59;13.50;88.80
74171;DHT22;62526;50.948;6.590;2022-09-24T02:47:26;13.50;88.70
74171;DHT22;62526;50.948;6.590;2022-09-24T02:49:52;13.50;88.60
74171;DHT22;62526;50.948;6.590;2022-09-24T02:52:19;13.50;88.60
74171;DHT22;62526;50.948;6.590;2022-09-24T02:54:45;13.50;88.50
74171;DHT22;62526;50.948;6.590;2022-09-24T02:57:12;13.50;88.60
74171;DHT22;62526;50.948;6.590;2022-09-24T02:59:39;13.50;88.70
74171;DHT22;62526;50.948;6.590;2022-09-24T03:02:06;13.50;89.00
74171;DHT22;62526;50.948;6.590;2022-09-24T03:04:32;13.50;89.20
74171;DHT22;62526;50.948;6.590;2022-09-24T03:06:59;13.40;89.30
74171;DHT22;62526;50.948;6.590;2022-09-24T03:09:25;13.40;89.50
74171;DHT22;62526;50.948;6.590;2022-09-24T03:11:52;13.40;89.60
74171;DHT22;62526;50.948;6.590;2022-09-24T03:14:19;13.40;89.80
74171;DHT22;62526;50.948;6.590;2022-09-24T03:16:46;13.40;90.20
74171;DHT22;62526;50.948;6.590;2022-09-24T03:19:13;13.50;89.70
74171;DHT22;62526;50.948;6.590;2022-09-24T03:21:39;13.50;89.70
74171;DHT22;62526;50.948;6.590;2022-09-24T03:24:06;13.50;89.70
74171;DHT22;62526;50.948;6.590;2022-09-24T03:26:32;13.40;89.50
74171;DHT22;62526;50.948;6.590;2022-09-24T03:28:59;13.40;89.60
74171;DHT22;62526;50.948;6.590;2022-09-24T03:31:26;13.40;89.80
74171;DHT22;62526;50.948;6.590;2022-09-24T03:33:53;13.40;90.40
74171;DHT22;62526;50.948;6.590;2022-09-24T03:36:21;13.40;90.00
74171;DHT22;62526;50.948;6.590;2022-09-24T03:38:48;13.30;90.10
74171;DHT22;62526;50.948;6.590;2022-09-24T03:41:14;13.30;90.10
74171;DHT22;62526;50.948;6.590;2022-09-24T03:43:40;13.30;90.00
74171;DHT22;62526;50.948;6.590;2022-09-24T03:46:08;13.30;90.20
74171;DHT22;62526;50.948;6.590;2022-09-24T03:48:35;13.30;90.30
74171;DHT22;62526;50.948;6.590;2022-09-24T03:51:03;13.30;90.40
74171;DHT22;62526;50.948;6.590;2022-09-24T03:53:30;13.20;90.50
74171;DHT22;62526;50.948;6.590;2022-09-24T03:55:57;13.20;90.50
74171;DHT22;62526;50.948;6.590;2022-09-24T03:58:24;13.20;90.50
74171;DHT22;62526;50.948;6.590;2022-09-24T04:00:51;13.20;90.70
74171;DHT22;62526;50.948;6.590;2022-09-24T04:03:17;13.20;90.70
74171;DHT22;62526;50.948;6.590;2022-09-24T04:05:45;13.20;90.80
74171;DHT22;62526;50.948;6.590;2022-09-24T04:08:11;13.20;90.80
74171;DHT22;62526;50.948;6.590;2022-09-24T04:10:38;13.20;90.90
74171;DHT22;62526;50.948;6.590;2022-09-24T04:13:05;13.20;90.90
74171;DHT22;62526;50.948;6.590;2022-09-24T04:15:31;13.20;90.80
74171;DHT22;62526;50.948;6.590;2022-09-24T04:17:59;13.20;90.80
74171;DHT22;62526;50.948;6.590;2022-09-24T04:20:26;13.20;90.70
74171;DHT22;62526;50.948;6.590;2022-09-24T04:22:53;13.20;90.80
74171;DHT22;62526;50.948;6.590;2022-09-24T04:25:20;13.20;90.70
74171;DHT22;62526;50.948;6.590;2022-09-24T04:27:51;13.20;90.70
74171;DHT22;62526;50.948;6.590;2022-09-24T04:30:14;13.20;90.70
74171;DHT22;62526;50.948;6.590;2022-09-24T04:32:41;13.20;91.00
74171;DHT22;62526;50.948;6.590;2022-09-24T04:35:08;13.20;90.70
74171;DHT22;62526;50.948;6.590;2022-09-24T04:37:35;13.20;90.70
74171;DHT22;62526;50.948;6.590;2022-09-24T04:40:02;13.20;90.70
74171;DHT22;62526;50.948;6.590;2022-09-24T04:42:28;13.20;90.60
74171;DHT22;62526;50.948;6.590;2022-09-24T04:44:54;13.20;90.60
74171;DHT22;62526;50.948;6.590;2022-09-24T04:47:21;13.20;90.60
74171;DHT22;62526;50.948;6.590;2022-09-24T04:49:48;13.30;90.60
74171;DHT22;62526;50.948;6.590;2022-09-24T04:52:14;13.30;90.60
74171;DHT22;62526;50.948;6.590;2022-09-24T04:54:41;13.20;90.60
74171;DHT22;62526;50.948;6.590;2022-09-24T04:57:10;13.20;90.60
74171;DHT22;62526;50.948;6.590;2022-09-24T04:59:36;13.20;90.70
74171;DHT22;62526;50.948;6.590;2022-09-24T05:02:02;13.20;90.80
74171;DHT22;62526;50.948;6.590;2022-09-24T05:04:29;13.10;90.80
74171;DHT22;62526;50.948;6.590;2022-09-24T05:06:56;13.10;90.80
74171;DHT22;62526;50.948;6.590;2022-09-24T05:09:22;13.00;91.10
74171;DHT22;62526;50.948;6.590;2022-09-24T05:11:49;13.00;90.90
74171;DHT22;62526;50.948;6.590;2022-09-24T05:14:16;12.90;91.00
74171;DHT22;62526;50.948;6.590;2022-09-24T05:16:42;12.80;91.00
74171;DHT22;62526;50.948;6.590;2022-09-24T05:19:09;12.80;91.10
74171;DHT22;62526;50.948;6.590;2022-09-24T05:21:36;12.70;91.10
74171;DHT22;62526;50.948;6.590;2022-09-24T05:24:03;12.70;91.10
74171;DHT22;62526;50.948;6.590;2022-09-24T05:26:30;12.60;91.20
74171;DHT22;62526;50.948;6.590;2022-09-24T05:29:02;12.60;91.10
74171;DHT22;62526;50.948;6.590;2022-09-24T05:31:29;12.60;91.20
74171;DHT22;62526;50.948;6.590;2022-09-24T05:33:56;12.50;91.20
74171;DHT22;62526;50.948;6.590;2022-09-24T05:36:22;12.50;91.30
74171;DHT22;62526;50.948;6.590;2022-09-24T05:38:49;12.50;91.30
74171;DHT22;62526;50.948;6.590;2022-09-24T05:41:16;12.50;91.50
74171;DHT22;62526;50.948;6.590;2022-09-24T05:43:43;12.50;91.50
74171;DHT22;62526;50.948;6.590;2022-09-24T05:46:10;12.60;91.60
74171;DHT22;62526;50.948;6.590;2022-09-24T05:48:37;12.60;91.50
74171;DHT22;62526;50.948;6.590;2022-09-24T05:51:04;12.60;91.40
74171;DHT22;62526;50.948;6.590;2022-09-24T05:53:30;12.60;91.40
74171;DHT22;62526;50.948;6.590;2022-09-24T05:55:57;12.60;91.30
74171;DHT22;62526;50.948;6.590;2022-09-24T05:58:24;12.70;91.30
74171;DHT22;62526;50.948;6.590;2022-09-24T06:00:51;12.70;91.30
74171;DHT22;62526;50.948;6.590;2022-09-24T06:03:18;12.70;91.10
74171;DHT22;62526;50.948;6.590;2022-09-24T06:05:46;12.80;91.10
74171;DHT22;62526;50.948;6.590;2022-09-24T06:08:12;12.80;91.00
74171;DHT22;62526;50.948;6.590;2022-09-24T06:10:39;12.80;91.00
74171;DHT22;62526;50.948;6.590;2022-09-24T06:13:05;12.90;91.00
74171;DHT22;62526;50.948;6.590;2022-09-24T06:15:32;12.90;90.90
74171;DHT22;62526;50.948;6.590;2022-09-24T06:17:59;12.90;90.90
74171;DHT22;62526;50.948;6.590;2022-09-24T06:20:25;13.00;90.90
74171;DHT22;62526;50.948;6.590;2022-09-24T06:22:54;13.00;90.80
74171;DHT22;62526;50.948;6.590;2022-09-24T06:25:20;13.10;90.80
74171;DHT22;62526;50.948;6.590;2022-09-24T06:28:04;13.20;90.60
74171;DHT22;62526;50.948;6.590;2022-09-24T06:30:33;13.20;90.60
74171;DHT22;62526;50.948;6.590;2022-09-24T06:33:02;13.20;90.50
74171;DHT22;62526;50.948;6.590;2022-09-24T06:35:28;13.30;90.50
74171;DHT22;62526;50.948;6.590;2022-09-24T06:37:56;13.30;90.50
74171;DHT22;62526;50.948;6.590;2022-09-24T06:40:22;13.30;90.40
74171;DHT22;62526;50.948;6.590;2022-09-24T06:42:50;13.40;90.40
74171;DHT22;62526;50.948;6.590;2022-09-24T06:45:18;13.40;90.40
74171;DHT22;62526;50.948;6.590;2022-09-24T06:47:50;13.40;90.30
74171;DHT22;62526;50.948;6.590;2022-09-24T06:50:10;13.40;90.30
74171;DHT22;62526;50.948;6.590;2022-09-24T06:52:38;13.50;90.20
74171;DHT22;62526;50.948;6.590;2022-09-24T06:55:05;13.50;90.20
74171;DHT22;62526;50.948;6.590;2022-09-24T06:57:32;13.50;90.30
74171;DHT22;62526;50.948;6.590;2022-09-24T06:59:59;13.50;90.20
74171;DHT22;62526;50.948;6.590;2022-09-24T07:02:25;13.60;90.30
74171;DHT22;62526;50.948;6.590;2022-09-24T07:04:52;13.70;90.30
74171;DHT22;62526;50.948;6.590;2022-09-24T07:07:19;13.70;90.20
74171;DHT22;62526;50.948;6.590;2022-09-24T07:09:51;13.80;90.20
74171;DHT22;62526;50.948;6.590;2022-09-24T07:12:18;13.80;90.10
74171;DHT22;62526;50.948;6.590;2022-09-24T07:14:44;13.90;90.00
74171;DHT22;62526;50.948;6.590;2022-09-24T07:17:11;14.00;89.90
74171;DHT22;62526;50.948;6.590;2022-09-24T07:19:37;14.10;89.50
74171;DHT22;62526;50.948;6.590;2022-09-24T07:22:04;14.10;89.20
74171;DHT22;62526;50.948;6.590;2022-09-24T07:24:31;14.20;90.00
74171;DHT22;62526;50.948;6.590;2022-09-24T07:26:57;14.30;89.40
74171;DHT22;62526;50.948;6.590;2022-09-24T07:29:24;14.40;89.30
74171;DHT22;62526;50.948;6.590;2022-09-24T07:31:51;14.40;89.10
74171;DHT22;62526;50.948;6.590;2022-09-24T07:34:18;14.50;89.00
74171;DHT22;62526;50.948;6.590;2022-09-24T07:36:45;14.50;89.00
74171;DHT22;62526;50.948;6.590;2022-09-24T07:39:11;14.60;89.00
74171;DHT22;62526;50.948;6.590;2022-09-24T07:41:38;14.60;89.00
74171;DHT22;62526;50.948;6.590;2022-09-24T07:44:05;14.60;89.30
74171;DHT22;62526;50.948;6.590;2022-09-24T07:46:33;14.60;89.30
74171;DHT22;62526;50.948;6.590;2022-09-24T07:48:59;14.70;89.30
74171;DHT22;62526;50.948;6.590;2022-09-24T07:51:26;14.70;89.10
74171;DHT22;62526;50.948;6.590;2022-09-24T07:53:53;14.80;89.20
74171;DHT22;62526;50.948;6.590;2022-09-24T07:56:19;14.80;88.80
74171;DHT22;62526;50.948;6.590;2022-09-24T07:58:48;14.90;89.00
74171;DHT22;62526;50.948;6.590;2022-09-24T08:01:14;15.00;88.90
74171;DHT22;62526;50.948;6.590;2022-09-24T08:03:41;15.00;88.60
74171;DHT22;62526;50.948;6.590;2022-09-24T08:06:07;15.10;88.30
74171;DHT22;62526;50.948;6.590;2022-09-24T08:08:34;15.20;88.40
74171;DHT22;62526;50.948;6.590;2022-09-24T08:11:03;15.30;88.40
74171;DHT22;62526;50.948;6.590;2022-09-24T08:13:28;15.30;88.30
74171;DHT22;62526;50.948;6.590;2022-09-24T08:15:56;15.40;88.00
74171;DHT22;62526;50.948;6.590;2022-09-24T08:18:23;15.50;87.60
74171;DHT22;62526;50.948;6.590;2022-09-24T08:20:49;15.50;87.60
74171;DHT22;62526;50.948;6.590;2022-09-24T08:23:16;15.50;87.40
74171;DHT22;62526;50.948;6.590;2022-09-24T08:25:42;15.60;87.20
74171;DHT22;62526;50.948;6.590;2022-09-24T08:28:09;15.70;87.30
74171;DHT22;62526;50.948;6.590;2022-09-24T08:30:36;15.80;87.80
74171;DHT22;62526;50.948;6.590;2022-09-24T08:33:02;15.90;87.40
74171;DHT22;62526;50.948;6.590;2022-09-24T08:35:29;16.00;86.20
74171;DHT22;62526;50.948;6.590;2022-09-24T08:37:56;16.10;86.10
74171;DHT22;62526;50.948;6.590;2022-09-24T08:40:23;16.20;86.10
74171;DHT22;62526;50.948;6.590;2022-09-24T08:43:01;16.20;86.40
74171;DHT22;62526;50.948;6.590;2022-09-24T08:45:36;16.30;86.20
74171;DHT22;62526;50.948;6.590;2022-09-24T08:48:09;16.40;85.50
74171;DHT22;62526;50.948;6.590;2022-09-24T08:50:26;16.50;84.60
74171;DHT22;62526;50.948;6.590;2022-09-24T08:53:00;16.60;85.30
74171;DHT22;62526;50.948;6.590;2022-09-24T08:55:36;16.70;84.30
74171;DHT22;62526;50.948;6.590;2022-09-24T08:58:21;16.80;84.20
74171;DHT22;62526;50.948;6.590;2022-09-24T09:00:56;17.10;83.90
74171;DHT22;62526;50.948;6.590;2022-09-24T09:04:02;17.10;83.90
74171;DHT22;62526;50.948;6.590;2022-09-24T09:08:54;17.40;83.00
74171;DHT22;62526;50.948;6.590;2022-09-24T09:11:19;17.50;82.60
74171;DHT22;62526;50.948;6.590;2022-09-24T09:13:51;17.60;81.90
74171;DHT22;62526;50.948;6.590;2022-09-24T09:16:25;17.60;81.40
74171;DHT22;62526;50.948;6.590;2022-09-24T09:18:54;17.60;81.20
74171;DHT22;62526;50.948;6.590;2022-09-24T09:21:31;17.60;80.70
74171;DHT22;62526;50.948;6.590;2022-09-24T09:23:56;17.60;80.20
74171;DHT22;62526;50.948;6.590;2022-09-24T09:26:23;17.60;80.50
74171;DHT22;62526;50.948;6.590;2022-09-24T09:28:50;17.60;80.80
74171;DHT22;62526;50.948;6.590;2022-09-24T09:31:25;17.50;80.10
74171;DHT22;62526;50.948;6.590;2022-09-24T09:34:11;17.50;80.20
74171;DHT22;62526;50.948;6.590;2022-09-24T09:36:41;17.50;80.60
74171;DHT22;62526;50.948;6.590;2022-09-24T09:39:17;17.50;79.60
74171;DHT22;62526;50.948;6.590;2022-09-24T09:41:49;17.60;80.40
74171;DHT22;62526;50.948;6.590;2022-09-24T09:44:20;17.80;79.90
74171;DHT22;62526;50.948;6.590;2022-09-24T09:46:49;17.80;80.10
74171;DHT22;62526;50.948;6.590;2022-09-24T09:49:12;17.90;79.20
74171;DHT22;62526;50.948;6.590;2022-09-24T09:51:40;18.10;78.60
74171;DHT22;62526;50.948;6.590;2022-09-24T09:54:06;18.00;78.40
74171;DHT22;62526;50.948;6.590;2022-09-24T09:56:36;18.10;78.60
74171;DHT22;62526;50.948;6.590;2022-09-24T09:59:07;18.10;78.20
74171;DHT22;62526;50.948;6.590;2022-09-24T10:01:33;18.20;78.00
74171;DHT22;62526;50.948;6.590;2022-09-24T10:03:59;18.20;77.60
74171;DHT22;62526;50.948;6.590;2022-09-24T10:06:28;18.20;77.40
74171;DHT22;62526;50.948;6.590;2022-09-24T10:09:05;18.20;78.00
74171;DHT22;62526;50.948;6.590;2022-09-24T10:11:21;18.30;78.50
74171;DHT22;62526;50.948;6.590;2022-09-24T10:14:07;18.50;74.90
74171;DHT22;62526;50.948;6.590;2022-09-24T10:16:34;18.50;74.90
74171;DHT22;62526;50.948;6.590;2022-09-24T10:18:58;18.70;74.10
74171;DHT22;62526;50.948;6.590;2022-09-24T10:21:33;18.80;73.50
74171;DHT22;62526;50.948;6.590;2022-09-24T10:24:02;19.00;73.00
74171;DHT22;62526;50.948;6.590;2022-09-24T10:26:36;19.20;73.20
74171;DHT22;62526;50.948;6.590;2022-09-24T10:29:02;19.30;71.60
74171;DHT22;62526;50.948;6.590;2022-09-24T10:31:36;19.50;71.30
74171;DHT22;62526;50.948;6.590;2022-09-24T10:34:03;19.70;70.10
74171;DHT22;62526;50.948;6.590;2022-09-24T10:36:29;19.80;67.40
74171;DHT22;62526;50.948;6.590;2022-09-24T10:39:10;19.90;65.20
74171;DHT22;62526;50.948;6.590;2022-09-24T10:41:44;20.00;64.10
74171;DHT22;62526;50.948;6.590;2022-09-24T10:44:07;20.20;63.10
74171;DHT22;62526;50.948;6.590;2022-09-24T10:49:51;20.30;63.20
74171;DHT22;62526;50.948;6.590;2022-09-24T10:52:29;20.30;63.80
74171;DHT22;62526;50.948;6.590;2022-09-24T10:55:03;20.30;63.50
74171;DHT22;62526;50.948;6.590;2022-09-24T11:00:23;20.20;63.00
74171;DHT22;62526;50.948;6.590;2022-09-24T11:06:00;19.60;63.00
74171;DHT22;62526;50.948;6.590;2022-09-24T11:08:32;19.60;63.00
74171;DHT22;62526;50.948;6.590;2022-09-24T11:11:04;19.30;63.30
74171;DHT22;62526;50.948;6.590;2022-09-24T11:13:37;19.10;64.70
74171;DHT22;62526;50.948;6.590;2022-09-24T11:16:12;19.00;65.80
74171;DHT22;62526;50.948;6.590;2022-09-24T11:18:55;18.90;67.00
74171;DHT22;62526;50.948;6.590;2022-09-24T11:21:48;18.80;67.40
74171;DHT22;62526;50.948;6.590;2022-09-24T11:24:22;18.70;67.90
74171;DHT22;62526;50.948;6.590;2022-09-24T11:26:52;18.60;68.30
74171;DHT22;62526;50.948;6.590;2022-09-24T11:29:22;18.50;68.60
74171;DHT22;62526;50.948;6.590;2022-09-24T11:32:35;18.40;68.70
74171;DHT22;62526;50.948;6.590;2022-09-24T11:35:21;18.40;68.70
74171;DHT22;62526;50.948;6.590;2022-09-24T11:37:39;18.30;69.80
74171;DHT22;62526;50.948;6.590;2022-09-24T11:41:33;18.20;69.70
74171;DHT22;62526;50.948;6.590;2022-09-24T11:43:27;18.20;70.30
74171;DHT22;62526;50.948;6.590;2022-09-24T11:45:56;18.20;70.10
74171;DHT22;62526;50.948;6.590;2022-09-24T11:48:23;18.20;70.80
74171;DHT22;62526;50.948;6.590;2022-09-24T11:50:55;18.30;70.50
74171;DHT22;62526;50.948;6.590;2022-09-24T11:53:41;18.40;70.30
74171;DHT22;62526;50.948;6.590;2022-09-24T11:56:12;18.40;69.30
74171;DHT22;62526;50.948;6.590;2022-09-24T11:58:41;18.60;68.70
74171;DHT22;62526;50.948;6.590;2022-09-24T12:01:12;18.60;69.40
74171;DHT22;62526;50.948;6.590;2022-09-24T12:03:43;18.80;68.50
74171;DHT22;62526;50.948;6.590;2022-09-24T12:06:11;19.00;67.50
74171;DHT22;62526;50.948;6.590;2022-09-24T12:08:40;19.20;66.50
74171;DHT22;62526;50.948;6.590;2022-09-24T12:11:09;19.30;64.90
74171;DHT22;62526;50.948;6.590;2022-09-24T12:13:39;19.40;64.70
74171;DHT22;62526;50.948;6.590;2022-09-24T12:16:12;19.40;64.40
74171;DHT22;62526;50.948;6.590;2022-09-24T12:21:17;19.40;65.80
74171;DHT22;62526;50.948;6.590;2022-09-24T12:23:43;19.30;66.20
74171;DHT22;62526;50.948;6.590;2022-09-24T12:26:10;19.30;66.70
74171;DHT22;62526;50.948;6.590;2022-09-24T12:28:57;19.20;67.10
74171;DHT22;62526;50.948;6.590;2022-09-24T12:31:33;19.10;67.50
74171;DHT22;62526;50.948;6.590;2022-09-24T12:34:17;18.90;68.00
74171;DHT22;62526;50.948;6.590;2022-09-24T12:36:59;18.80;69.10
74171;DHT22;62526;50.948;6.590;2022-09-24T12:39:26;18.70;70.80
74171;DHT22;62526;50.948;6.590;2022-09-24T12:41:55;18.70;70.80
74171;DHT22;62526;50.948;6.590;2022-09-24T12:44:19;18.70;71.50
74171;DHT22;62526;50.948;6.590;2022-09-24T12:46:45;18.60;72.00
74171;DHT22;62526;50.948;6.590;2022-09-24T12:49:31;18.60;71.90
74171;DHT22;62526;50.948;6.590;2022-09-24T12:51:58;18.60;72.70
74171;DHT22;62526;50.948;6.590;2022-09-24T12:54:35;18.60;72.70
74171;DHT22;62526;50.948;6.590;2022-09-24T12:57:04;18.60;72.60
74171;DHT22;62526;50.948;6.590;2022-09-24T12:59:30;18.60;71.90
74171;DHT22;62526;50.948;6.590;2022-09-24T13:02:11;18.60;71.20
74171;DHT22;62526;50.948;6.590;2022-09-24T13:04:32;18.60;71.10
74171;DHT22;62526;50.948;6.590;2022-09-24T13:06:59;18.60;70.50
74171;DHT22;62526;50.948;6.590;2022-09-24T13:09:33;18.60;70.40
74171;DHT22;62526;50.948;6.590;2022-09-24T13:12:01;18.60;70.30
74171;DHT22;62526;50.948;6.590;2022-09-24T13:14:27;18.70;70.40
74171;DHT22;62526;50.948;6.590;2022-09-24T13:16:54;18.70;70.30
74171;DHT22;62526;50.948;6.590;2022-09-24T13:19:25;18.70;69.20
74171;DHT22;62526;50.948;6.590;2022-09-24T13:21:54;18.70;68.60
74171;DHT22;62526;50.948;6.590;2022-09-24T13:24:27;18.70;68.70
74171;DHT22;62526;50.948;6.590;2022-09-24T13:26:52;18.80;69.00
74171;DHT22;62526;50.948;6.590;2022-09-24T13:29:24;18.80;69.20
74171;DHT22;62526;50.948;6.590;2022-09-24T13:31:52;18.90;69.10
74171;DHT22;62526;50.948;6.590;2022-09-24T13:34:21;19.00;68.70
74171;DHT22;62526;50.948;6.590;2022-09-24T13:37:21;19.10;68.00
74171;DHT22;62526;50.948;6.590;2022-09-24T13:39:50;19.20;68.20
74171;DHT22;62526;50.948;6.590;2022-09-24T13:42:36;19.20;67.80
74171;DHT22;62526;50.948;6.590;2022-09-24T13:45:02;19.10;67.60
74171;DHT22;62526;50.948;6.590;2022-09-24T13:47:35;19.00;68.10
74171;DHT22;62526;50.948;6.590;2022-09-24T13:50:18;19.00;68.40
74171;DHT22;62526;50.948;6.590;2022-09-24T13:53:01;19.00;67.60
74171;DHT22;62526;50.948;6.590;2022-09-24T13:55:30;18.90;67.60
74171;DHT22;62526;50.948;6.590;2022-09-24T13:57:55;18.90;68.50
74171;DHT22;62526;50.948;6.590;2022-09-24T14:00:23;18.90;68.90
74171;DHT22;62526;50.948;6.590;2022-09-24T14:03:00;19.00;69.10
74171;DHT22;62526;50.948;6.590;2022-09-24T14:05:26;19.00;68.10
74171;DHT22;62526;50.948;6.590;2022-09-24T14:08:04;19.00;67.80
74171;DHT22;62526;50.948;6.590;2022-09-24T14:10:30;18.90;67.10
74171;DHT22;62526;50.948;6.590;2022-09-24T14:12:59;18.90;67.10
74171;DHT22;62526;50.948;6.590;2022-09-24T14:15:25;18.90;67.00
74171;DHT22;62526;50.948;6.590;2022-09-24T14:17:55;18.80;66.70
74171;DHT22;62526;50.948;6.590;2022-09-24T14:20:20;18.70;66.70
74171;DHT22;62526;50.948;6.590;2022-09-24T14:22:47;18.70;67.30
74171;DHT22;62526;50.948;6.590;2022-09-24T14:25:15;18.70;67.50
74171;DHT22;62526;50.948;6.590;2022-09-24T14:27:42;18.70;67.60
74171;DHT22;62526;50.948;6.590;2022-09-24T14:30:16;18.70;68.10
74171;DHT22;62526;50.948;6.590;2022-09-24T14:32:37;18.70;67.60
74171;DHT22;62526;50.948;6.590;2022-09-24T14:35:06;18.70;67.60
74171;DHT22;62526;50.948;6.590;2022-09-24T14:37:34;18.70;67.80
74171;DHT22;62526;50.948;6.590;2022-09-24T14:40:03;18.60;68.10
74171;DHT22;62526;50.948;6.590;2022-09-24T14:42:30;18.60;68.80
74171;DHT22;62526;50.948;6.590;2022-09-24T14:44:55;18.60;69.10
74171;DHT22;62526;50.948;6.590;2022-09-24T14:47:25;18.50;69.60
74171;DHT22;62526;50.948;6.590;2022-09-24T14:49:51;18.50;69.70
74171;DHT22;62526;50.948;6.590;2022-09-24T14:52:25;18.50;70.10
74171;DHT22;62526;50.948;6.590;2022-09-24T14:54:59;18.50;70.10
74171;DHT22;62526;50.948;6.590;2022-09-24T14:57:24;18.50;70.50
74171;DHT22;62526;50.948;6.590;2022-09-24T14:59:51;18.50;69.90
74171;DHT22;62526;50.948;6.590;2022-09-24T15:02:22;18.50;69.60
74171;DHT22;62526;50.948;6.590;2022-09-24T15:04:50;18.40;69.70
74171;DHT22;62526;50.948;6.590;2022-09-24T15:07:16;18.30;69.50
74171;DHT22;62526;50.948;6.590;2022-09-24T15:09:42;18.40;70.10
74171;DHT22;62526;50.948;6.590;2022-09-24T15:12:09;18.40;70.10
74171;DHT22;62526;50.948;6.590;2022-09-24T15:14:35;18.40;70.70
74171;DHT22;62526;50.948;6.590;2022-09-24T15:17:08;18.30;70.40
74171;DHT22;62526;50.948;6.590;2022-09-24T15:19:34;18.30;70.50
74171;DHT22;62526;50.948;6.590;2022-09-24T15:22:01;18.20;70.60
74171;DHT22;62526;50.948;6.590;2022-09-24T15:24:28;18.10;70.80
74171;DHT22;62526;50.948;6.590;2022-09-24T15:27:00;18.10;71.90
74171;DHT22;62526;50.948;6.590;2022-09-24T15:29:25;18.10;71.80
74171;DHT22;62526;50.948;6.590;2022-09-24T15:31:53;18.00;72.50
74171;DHT22;62526;50.948;6.590;2022-09-24T15:34:19;18.00;72.50
74171;DHT22;62526;50.948;6.590;2022-09-24T15:36:51;17.90;72.50
74171;DHT22;62526;50.948;6.590;2022-09-24T15:39:14;17.90;72.80
74171;DHT22;62526;50.948;6.590;2022-09-24T15:41:41;17.90;73.00
74171;DHT22;62526;50.948;6.590;2022-09-24T15:44:09;17.80;73.10
74171;DHT22;62526;50.948;6.590;2022-09-24T15:46:34;17.70;73.00
74171;DHT22;62526;50.948;6.590;2022-09-24T15:49:01;17.60;73.60
74171;DHT22;62526;50.948;6.590;2022-09-24T15:51:29;17.50;74.40
74171;DHT22;62526;50.948;6.590;2022-09-24T15:53:55;17.50;74.40
74171;DHT22;62526;50.948;6.590;2022-09-24T15:56:23;17.40;74.90